createdAt,value
2023-03-16T00:00:56.842Z,99.30
2023-03-16T00:03:24.671Z,99.30
2023-03-16T00:05:53.895Z,99.11
2023-03-16T00:08:21.498Z,99.05
2023-03-16T00:10:49.322Z,98.45
2023-03-16T00:13:18.770Z,97.69
2023-03-16T00:15:58.933Z,98.59
2023-03-16T00:18:28.973Z,98.12
2023-03-16T00:20:59.017Z,98.02
2023-03-16T00:23:29.592Z,98.31
2023-03-16T00:25:59.288Z,99.28
2023-03-16T00:28:28.151Z,99.00
2023-03-16T00:30:59.324Z,99.39
2023-03-16T00:33:28.395Z,98.80
2023-03-16T00:36:02.308Z,99.33
2023-03-16T00:38:35.464Z,99.22
2023-03-16T00:41:05.884Z,99.46
2023-03-16T00:43:41.806Z,99.77
2023-03-16T00:46:13.798Z,97.67
2023-03-16T00:48:44.192Z,97.98
2023-03-16T00:51:15.631Z,98.86
2023-03-16T00:53:45.426Z,98.94
2023-03-16T00:56:14.151Z,98.08
2023-03-16T00:58:43.403Z,97.57
2023-03-16T01:01:14.878Z,97.38
2023-03-16T01:03:43.119Z,97.51
2023-03-16T01:06:15.214Z,98.97
2023-03-16T01:08:44.583Z,97.27
2023-03-16T01:11:16.383Z,96.95
2023-03-16T01:13:47.089Z,96.11
2023-03-16T01:16:23.326Z,96.12
2023-03-16T01:18:52.693Z,96.07
2023-03-16T01:21:21.827Z,95.17
2023-03-16T01:23:50.864Z,95.64
2023-03-16T01:26:18.973Z,96.11
2023-03-16T01:28:47.799Z,95.88
2023-03-16T01:31:16.458Z,95.70
2023-03-16T01:33:44.271Z,95.99
2023-03-16T01:36:15.179Z,96.60
2023-03-16T01:38:43.699Z,96.55
2023-03-16T01:41:12.343Z,95.55
2023-03-16T01:43:41.340Z,95.44
2023-03-16T01:46:20.245Z,95.81
2023-03-16T01:49:15.212Z,96.77
2023-03-16T01:52:07.935Z,95.84
2023-03-16T01:54:47.176Z,96.95
2023-03-16T01:57:22.222Z,96.78
2023-03-16T01:59:58.064Z,97.30
2023-03-16T02:02:30.559Z,97.12
2023-03-16T02:05:05.911Z,97.33
2023-03-16T02:07:43.234Z,97.80
2023-03-16T02:10:14.106Z,97.30
2023-03-16T02:12:43.000Z,96.82
2023-03-16T02:15:14.240Z,97.04
2023-03-16T02:17:44.459Z,96.30
2023-03-16T02:20:24.261Z,96.32
2023-03-16T02:22:57.160Z,96.23
2023-03-16T02:25:31.307Z,96.22
2023-03-16T02:28:25.410Z,95.81
2023-03-16T02:30:53.844Z,96.36
2023-03-16T02:33:22.961Z,96.44
2023-03-16T02:35:51.016Z,95.62
2023-03-16T02:38:18.534Z,95.91
2023-03-16T02:40:58.238Z,95.18
2023-03-16T02:43:33.290Z,95.46
2023-03-16T02:46:05.402Z,96.46
2023-03-16T02:48:38.492Z,96.48
2023-03-16T02:51:06.354Z,96.52
2023-03-16T02:53:34.048Z,96.29
2023-03-16T02:56:02.965Z,96.39
2023-03-16T02:58:32.113Z,96.67
2023-03-16T03:01:01.775Z,96.93
2023-03-16T03:03:29.646Z,97.13
2023-03-16T03:05:58.867Z,97.34
2023-03-16T03:08:27.105Z,97.13
2023-03-16T03:10:54.919Z,96.60
2023-03-16T03:13:24.172Z,96.11
2023-03-16T03:15:52.737Z,95.18
2023-03-16T03:18:22.121Z,95.57
2023-03-16T03:20:50.104Z,94.79
2023-03-16T03:23:17.571Z,95.26
2023-03-16T03:25:45.397Z,95.64
2023-03-16T03:28:14.673Z,95.58
2023-03-16T03:30:42.307Z,95.64
2023-03-16T03:33:10.658Z,95.35
2023-03-16T03:35:38.566Z,95.65
2023-03-16T03:38:08.139Z,95.27
2023-03-16T03:40:36.305Z,95.25
2023-03-16T03:43:05.116Z,94.56
2023-03-16T03:45:33.196Z,95.11
2023-03-16T03:48:00.832Z,94.65
2023-03-16T03:50:28.845Z,94.47
2023-03-16T03:52:57.370Z,94.08
2023-03-16T03:55:25.385Z,94.25
2023-03-16T03:57:53.099Z,94.01
2023-03-16T04:00:22.005Z,95.07
2023-03-16T04:02:49.930Z,94.39
2023-03-16T04:05:17.734Z,94.20
2023-03-16T04:07:46.311Z,94.40
2023-03-16T04:10:14.889Z,94.27
2023-03-16T04:12:42.648Z,94.63
2023-03-16T04:15:12.513Z,94.58
2023-03-16T04:17:40.746Z,93.87
2023-03-16T04:20:19.120Z,94.04
2023-03-16T04:22:47.545Z,94.32
2023-03-16T04:25:17.428Z,93.53
2023-03-16T04:27:46.874Z,93.60
2023-03-16T04:30:15.880Z,94.00
2023-03-16T04:32:44.107Z,93.99
2023-03-16T04:35:12.090Z,93.72
2023-03-16T04:37:41.721Z,93.22
2023-03-16T04:40:15.752Z,93.00
2023-03-16T04:42:45.547Z,93.79
2023-03-16T04:45:16.102Z,93.11
2023-03-16T04:47:44.454Z,93.05
2023-03-16T04:50:13.072Z,93.09
2023-03-16T04:52:41.244Z,93.26
2023-03-16T04:55:09.372Z,93.29
2023-03-16T04:57:37.723Z,93.61
2023-03-16T05:00:18.706Z,94.22
2023-03-16T05:02:48.266Z,93.75
2023-03-16T05:05:16.278Z,92.59
2023-03-16T05:07:45.277Z,92.86
2023-03-16T05:10:15.511Z,92.69
2023-03-16T05:12:43.061Z,92.60
2023-03-16T05:15:11.084Z,92.31
2023-03-16T05:17:42.993Z,92.46
2023-03-16T05:20:15.853Z,92.11
2023-03-16T05:22:46.324Z,91.98
2023-03-16T05:25:15.644Z,91.74
2023-03-16T05:27:48.905Z,91.25
2023-03-16T05:30:19.331Z,91.01
2023-03-16T05:32:47.890Z,91.37
2023-03-16T05:35:16.127Z,91.01
2023-03-16T05:37:44.803Z,91.11
2023-03-16T05:40:17.391Z,91.23
2023-03-16T05:42:48.201Z,90.98
2023-03-16T05:45:17.418Z,91.03
2023-03-16T05:47:45.347Z,90.67
2023-03-16T05:50:16.984Z,90.47
2023-03-16T05:52:46.232Z,90.36
2023-03-16T05:55:16.289Z,90.10
2023-03-16T05:57:44.586Z,90.17
2023-03-16T06:00:20.483Z,89.42
2023-03-16T06:02:51.451Z,88.67
2023-03-16T06:05:21.841Z,88.50
2023-03-16T06:07:50.258Z,87.58
2023-03-16T06:10:18.968Z,87.27
2023-03-16T06:12:46.630Z,85.83
2023-03-16T06:15:14.547Z,86.14
2023-03-16T06:17:42.134Z,85.95
2023-03-16T06:20:13.448Z,85.46
2023-03-16T06:22:42.600Z,86.61
2023-03-16T06:25:12.514Z,84.72
2023-03-16T06:27:40.349Z,85.46
2023-03-16T06:30:12.015Z,84.50
2023-03-16T06:32:42.296Z,84.32
2023-03-16T06:35:11.378Z,81.30
2023-03-16T06:37:40.073Z,81.54
2023-03-16T06:40:08.763Z,81.24
2023-03-16T06:42:37.039Z,79.89
2023-03-16T06:45:05.810Z,79.98
2023-03-16T06:47:33.804Z,79.47
2023-03-16T06:50:01.919Z,78.08
2023-03-16T06:52:31.737Z,76.51
2023-03-16T06:54:59.612Z,76.65
2023-03-16T06:57:28.088Z,77.73
2023-03-16T06:59:56.894Z,75.56
2023-03-16T07:02:24.738Z,76.12
2023-03-16T07:04:54.192Z,75.76
2023-03-16T07:07:22.224Z,74.05
2023-03-16T07:09:50.069Z,74.24
2023-03-16T07:12:18.717Z,74.18
2023-03-16T07:14:50.053Z,74.62
2023-03-16T07:17:21.820Z,75.45
2023-03-16T07:19:49.528Z,72.97
2023-03-16T07:22:17.289Z,73.00
2023-03-16T07:24:45.360Z,74.01
2023-03-16T07:27:13.064Z,73.41
